createdAt,value
2017-11-28T00:59:39.115Z,67.10
2017-11-28T01:04:49.848Z,66.40
2017-11-28T01:39:35.166Z,66.10
2017-11-28T01:42:17.344Z,66.40
2017-11-28T01:47:39.802Z,66.40
2017-11-28T02:39:21.184Z,68.30
2017-11-28T02:50:14.269Z,68.60
2017-11-28T03:17:41.092Z,68.20
2017-11-28T06:22:51.065Z,63.20
2017-11-28T06:25:19.883Z,63.30
2017-11-28T06:27:48.661Z,63.00
2017-11-28T06:30:16.770Z,63.10
2017-11-28T06:33:05.266Z,63.20
2017-11-28T06:35:54.584Z,63.40
2017-11-28T06:38:52.224Z,63.30
2017-11-28T06:41:30.460Z,63.30
2017-11-28T06:44:03.908Z,63.30
2017-11-28T06:46:33.380Z,63.20
2017-11-28T06:51:56.456Z,63.40
2017-11-28T06:54:24.562Z,63.30
2017-11-28T06:57:14.407Z,62.80
2017-11-28T07:00:05.488Z,62.90
2017-11-28T07:02:35.511Z,63.30
2017-11-28T07:07:46.390Z,62.30
2017-11-28T07:12:54.240Z,61.90
2017-11-28T07:17:58.840Z,63.40
2017-11-28T07:20:37.366Z,62.90
2017-11-28T07:23:12.501Z,62.60
2017-11-28T07:32:00.555Z,60.80
2017-11-28T07:34:30.212Z,60.80
2017-11-28T07:36:58.435Z,60.80
2017-11-28T07:39:26.742Z,58.70
2017-11-28T07:41:55.325Z,59.50
2017-11-28T07:44:28.258Z,62.30
2017-11-28T17:16:11.720Z,64.80
2017-11-28T17:29:50.186Z,63.60
2017-11-28T17:32:25.090Z,63.50
2017-11-28T19:39:00.443Z,66.60
2017-11-28T20:24:04.567Z,65.10
2017-11-28T20:26:34.314Z,65.90
2017-11-28T20:29:06.386Z,66.20
2017-11-28T20:31:36.876Z,65.90
2017-11-28T20:42:18.729Z,65.70
2017-11-28T20:47:21.937Z,65.70
2017-11-28T20:49:55.431Z,67.20
2017-11-28T20:52:24.444Z,66.60
2017-11-28T20:54:53.396Z,66.70
2017-11-28T20:57:24.263Z,65.80
2017-11-28T20:59:56.513Z,65.50
2017-11-28T21:02:27.751Z,67.30
2017-11-28T21:04:57.064Z,66.50
2017-11-28T21:07:27.022Z,66.50
2017-11-28T21:09:57.727Z,66.50
2017-11-28T21:12:27.131Z,66.50
2017-11-28T21:14:55.286Z,66.70
2017-11-28T21:17:23.844Z,67.20
2017-11-28T21:19:52.361Z,66.40
2017-11-28T21:22:20.928Z,67.60
2017-11-28T21:24:50.045Z,67.80
2017-11-28T21:27:19.302Z,68.00
2017-11-28T21:29:47.714Z,67.10
2017-11-28T21:32:17.763Z,67.30
2017-11-28T21:37:30.433Z,67.10
2017-11-28T21:40:05.743Z,66.90
2017-11-28T21:42:41.882Z,67.60
2017-11-28T21:45:14.771Z,68.40
2017-11-28T21:47:44.677Z,68.70
2017-11-28T21:55:21.774Z,68.10
2017-11-28T21:57:50.716Z,67.80
2017-11-28T22:00:21.225Z,68.10
2017-11-28T22:02:53.279Z,67.70
2017-11-28T22:05:21.998Z,67.50
2017-11-28T22:07:50.625Z,67.80
2017-11-28T22:10:19.206Z,68.10
2017-11-28T22:12:47.300Z,69.00
2017-11-28T22:15:15.849Z,69.50
2017-11-28T22:17:44.043Z,69.20
2017-11-28T22:20:12.524Z,69.60
2017-11-28T22:22:40.706Z,69.10
2017-11-28T22:25:09.160Z,68.20
2017-11-28T22:27:37.291Z,69.00
2017-11-28T22:30:06.141Z,69.60
2017-11-28T22:32:34.259Z,68.50
2017-11-28T22:35:02.375Z,68.50
2017-11-28T22:37:31.289Z,69.00
2017-11-28T22:39:59.432Z,69.00
2017-11-28T22:42:28.684Z,67.80
2017-11-28T22:44:57.508Z,67.80
2017-11-28T22:47:25.649Z,67.80
2017-11-28T22:49:54.135Z,68.20
2017-11-28T22:52:22.392Z,67.90
2017-11-28T22:54:50.796Z,68.30
2017-11-28T22:57:18.916Z,68.80
2017-11-28T22:59:47.389Z,68.30
2017-11-28T23:02:15.532Z,68.20
2017-11-28T23:04:43.967Z,68.50
2017-11-28T23:07:12.808Z,68.60
2017-11-28T23:09:41.464Z,69.30
2017-11-28T23:12:09.544Z,68.00
2017-11-28T23:14:49.302Z,68.90
2017-11-28T23:17:18.234Z,68.20
2017-11-28T23:19:46.352Z,67.30
2017-11-28T23:22:15.410Z,68.60
2017-11-28T23:24:44.283Z,69.30
2017-11-28T23:27:12.396Z,69.30
2017-11-28T23:29:40.518Z,68.90
2017-11-28T23:32:08.630Z,68.30
2017-11-28T23:34:36.719Z,69.10
2017-11-28T23:37:04.860Z,68.40
2017-11-28T23:39:32.996Z,69.10
2017-11-28T23:42:01.133Z,68.70
2017-11-28T23:44:29.224Z,68.50
2017-11-28T23:46:57.318Z,68.10
2017-11-28T23:49:25.471Z,68.70
2017-11-28T23:51:53.372Z,68.80
2017-11-28T23:54:21.552Z,68.20
2017-11-28T23:56:50.037Z,68.30
2017-11-28T23:59:18.154Z,68.00
